createdAt,value
2018-12-02T06:34:18.982Z,3
2018-12-02T06:40:49.328Z,7
2018-12-02T06:43:49.522Z,10
2018-12-02T06:45:49.631Z,13
2018-12-02T06:47:19.736Z,17
2018-12-02T06:48:19.812Z,20
2018-12-02T06:48:49.845Z,23
2018-12-02T06:49:49.876Z,27
2018-12-02T06:50:19.986Z,30
2018-12-02T06:51:19.971Z,33
2018-12-02T06:51:50.000Z,37
2018-12-02T06:53:20.150Z,40
2018-12-02T06:53:50.114Z,43
2018-12-02T06:54:20.211Z,47
2018-12-02T06:54:50.179Z,53
2018-12-02T06:55:20.288Z,57
2018-12-02T06:55:50.280Z,60
2018-12-02T06:56:20.292Z,63
2018-12-02T06:56:50.346Z,67
2018-12-02T06:57:50.418Z,70
2018-12-02T06:58:20.429Z,77
2018-12-02T06:59:50.516Z,80
2018-12-02T07:00:20.528Z,87
2018-12-02T07:00:50.581Z,90
2018-12-02T07:02:20.652Z,93
2018-12-02T07:03:20.713Z,97
2018-12-02T07:03:50.755Z,100
2018-12-02T07:04:50.833Z,103
2018-12-02T07:05:50.953Z,110
2018-12-02T07:06:20.945Z,113
2018-12-02T07:06:50.944Z,120
2018-12-02T07:07:51.009Z,123
2018-12-02T07:08:21.035Z,127
2018-12-02T07:09:51.122Z,130
2018-12-02T07:10:21.214Z,133
2018-12-02T07:11:21.233Z,137
2018-12-02T07:12:21.276Z,133
2018-12-02T07:13:21.381Z,130
2018-12-02T07:14:21.447Z,133
2018-12-02T07:15:51.494Z,140
2018-12-02T07:16:21.573Z,143
2018-12-02T07:16:51.648Z,147
2018-12-02T07:17:21.578Z,150
2018-12-02T07:17:51.654Z,157
2018-12-02T07:18:21.687Z,160
2018-12-02T07:18:51.737Z,167
2018-12-02T07:19:21.701Z,170
2018-12-02T07:19:51.770Z,173
2018-12-02T07:20:21.759Z,180
2018-12-02T07:20:51.842Z,187
2018-12-02T07:21:21.820Z,193
2018-12-02T07:21:51.908Z,200
2018-12-02T07:22:21.880Z,207
2018-12-02T07:22:51.940Z,213
2018-12-02T07:23:52.052Z,227
2018-12-02T07:24:22.005Z,237
2018-12-02T07:24:52.081Z,250
2018-12-02T07:25:22.172Z,260
2018-12-02T07:25:52.180Z,270
2018-12-02T07:26:22.128Z,280
2018-12-02T07:26:52.216Z,290
2018-12-02T07:27:22.227Z,303
2018-12-02T07:27:52.304Z,313
2018-12-02T07:28:22.268Z,327
2018-12-02T07:28:52.327Z,337
2018-12-02T07:29:22.380Z,340
2018-12-02T07:29:52.548Z,347
2018-12-02T07:30:24.954Z,350
2018-12-02T07:30:52.432Z,357
2018-12-02T07:31:22.484Z,373
2018-12-02T07:31:52.558Z,387
2018-12-02T07:32:22.561Z,400
2018-12-02T07:32:52.532Z,413
2018-12-02T07:33:22.614Z,423
2018-12-02T07:33:52.585Z,430
2018-12-02T07:34:22.642Z,447
2018-12-02T07:34:52.650Z,460
2018-12-02T07:35:22.686Z,467
2018-12-02T07:35:52.729Z,477
2018-12-02T07:36:22.771Z,493
2018-12-02T07:36:52.769Z,513
2018-12-02T07:37:22.804Z,533
2018-12-02T07:37:52.907Z,547
2018-12-02T07:38:22.905Z,567
2018-12-02T07:38:52.891Z,580
2018-12-02T07:39:22.927Z,603
2018-12-02T07:39:53.005Z,623
2018-12-02T07:40:23.008Z,647
2018-12-02T07:40:53.010Z,653
2018-12-02T07:41:23.097Z,660
2018-12-02T07:41:53.122Z,680
2018-12-02T07:42:23.167Z,707
2018-12-02T07:42:53.179Z,727
2018-12-02T07:43:23.199Z,743
2018-12-02T07:43:53.208Z,760
2018-12-02T07:44:23.587Z,780
2018-12-02T07:44:53.304Z,817
2018-12-02T07:45:23.303Z,837
2018-12-02T07:45:53.361Z,847
2018-12-02T07:46:23.404Z,870
2018-12-02T07:46:53.455Z,883
2018-12-02T07:47:23.468Z,897
2018-12-02T07:47:53.487Z,927
2018-12-02T07:48:23.554Z,943
2018-12-02T07:48:53.552Z,980
2018-12-02T07:49:23.596Z,1013
2018-12-02T07:49:53.560Z,1010
2018-12-02T07:50:23.652Z,1017
2018-12-02T07:50:53.662Z,1020
2018-12-02T07:51:23.710Z,1040
2018-12-02T07:51:53.726Z,1080
2018-12-02T07:52:23.726Z,1110
2018-12-02T07:52:53.783Z,1120
2018-12-02T07:53:23.832Z,1137
2018-12-02T07:53:53.850Z,1157
2018-12-02T07:54:23.910Z,1180
2018-12-02T07:54:53.903Z,1190
2018-12-02T07:55:23.958Z,1200
2018-12-02T07:55:53.968Z,1217
2018-12-02T07:56:24.040Z,1253
2018-12-02T07:56:54.040Z,1270
2018-12-02T07:57:24.084Z,1277
2018-12-02T07:57:54.085Z,1283
2018-12-02T07:59:24.205Z,1287
2018-12-02T07:59:54.219Z,1283
2018-12-02T08:00:54.287Z,1287
2018-12-02T08:01:24.327Z,1283
2018-12-02T08:01:54.389Z,1273
2018-12-02T08:02:24.388Z,1267
2018-12-02T08:02:54.392Z,1263
2018-12-02T08:03:24.484Z,1257
2018-12-02T08:03:54.449Z,1217
2018-12-02T08:04:24.507Z,1263
2018-12-02T08:04:54.478Z,1283
2018-12-02T08:05:24.605Z,1313
2018-12-02T08:05:54.555Z,1330
2018-12-02T08:06:24.653Z,1343
2018-12-02T08:06:54.643Z,1360
2018-12-02T08:07:24.703Z,1377
2018-12-02T08:07:54.703Z,1383
2018-12-02T08:08:54.768Z,1373
2018-12-02T08:09:24.831Z,1363
2018-12-02T08:09:54.835Z,1353
2018-12-02T08:10:24.844Z,1350
2018-12-02T08:10:54.882Z,1340
2018-12-02T08:11:24.967Z,1327
2018-12-02T08:11:54.944Z,1317
2018-12-02T08:12:25.066Z,1313
2018-12-02T08:13:25.084Z,1317
2018-12-02T08:13:55.068Z,1323
2018-12-02T08:14:25.134Z,1340
2018-12-02T08:14:55.099Z,1370
2018-12-02T08:15:25.184Z,1397
2018-12-02T08:15:55.156Z,1420
2018-12-02T08:16:25.261Z,1447
2018-12-02T08:17:25.367Z,1467
2018-12-02T08:17:55.312Z,1473
2018-12-02T08:18:25.374Z,1517
2018-12-02T08:18:55.795Z,1570
2018-12-02T08:19:25.434Z,1633
2018-12-02T08:19:55.419Z,1693
2018-12-02T08:20:25.508Z,1737
2018-12-02T08:20:55.478Z,1820
2018-12-02T08:21:25.562Z,1853
2018-12-02T08:21:55.561Z,1867
2018-12-02T08:22:25.597Z,1903
2018-12-02T08:22:55.615Z,1937
2018-12-02T08:23:25.691Z,1960
2018-12-02T08:23:55.685Z,2010
2018-12-02T08:24:25.700Z,2030
2018-12-02T08:24:55.719Z,2057
2018-12-02T08:25:25.802Z,2093
2018-12-02T08:25:55.804Z,2140
2018-12-02T08:26:25.879Z,2210
2018-12-02T08:26:55.899Z,2243
2018-12-02T08:27:25.943Z,2277
2018-12-02T08:27:55.965Z,2303
2018-12-02T08:28:26.050Z,2330
2018-12-02T08:28:56.033Z,2370
2018-12-02T08:29:26.062Z,2407
2018-12-02T08:29:56.074Z,2447
2018-12-02T08:30:26.486Z,2487
2018-12-02T08:30:56.457Z,2507
2018-12-02T08:31:26.520Z,2550
2018-12-02T08:31:56.530Z,2500
2018-12-02T08:32:26.612Z,2457
2018-12-02T08:32:56.597Z,2440
2018-12-02T08:33:26.656Z,2523
2018-12-02T08:33:56.665Z,2560
2018-12-02T08:34:26.708Z,2597
2018-12-02T08:34:56.717Z,2633
2018-12-02T08:35:26.761Z,2673
2018-12-02T08:35:56.781Z,2720
2018-12-02T08:36:26.826Z,2773
2018-12-02T08:36:56.836Z,2887
2018-12-02T08:37:26.845Z,2977
2018-12-02T08:37:56.899Z,2917
2018-12-02T08:38:26.956Z,2987
2018-12-02T08:38:56.982Z,3017
2018-12-02T08:39:27.006Z,3080
2018-12-02T08:39:56.992Z,3103
2018-12-02T08:40:27.079Z,3107
2018-12-02T08:40:57.091Z,3087
2018-12-02T08:41:27.149Z,3070
2018-12-02T08:41:57.152Z,3100
2018-12-02T08:42:27.195Z,3123
2018-12-02T08:42:57.203Z,3163
2018-12-02T08:43:27.709Z,3140
2018-12-02T08:43:57.260Z,3150
2018-12-02T08:44:27.354Z,3120
2018-12-02T08:44:57.317Z,3087
2018-12-02T08:45:27.384Z,3123
2018-12-02T08:45:57.383Z,3140
2018-12-02T08:46:27.455Z,3153
2018-12-02T08:46:57.439Z,3200
2018-12-02T08:47:27.575Z,3210
2018-12-02T08:47:57.502Z,3240
2018-12-02T08:48:27.569Z,3270
2018-12-02T08:48:57.572Z,3083
2018-12-02T08:49:27.626Z,3143
2018-12-02T08:49:57.624Z,3193
2018-12-02T08:50:27.761Z,3243
2018-12-02T08:50:57.694Z,3297
2018-12-02T08:51:27.733Z,3370
2018-12-02T08:51:57.767Z,3413
2018-12-02T08:52:27.814Z,3443
2018-12-02T08:52:57.810Z,3450
2018-12-02T08:53:27.847Z,3460
2018-12-02T08:53:57.901Z,3467
2018-12-02T08:54:57.928Z,3490
2018-12-02T08:55:27.996Z,3520
2018-12-02T08:55:57.999Z,3530
2018-12-02T08:56:58.057Z,3367
2018-12-02T08:57:28.123Z,3360
2018-12-02T08:57:58.113Z,3403
2018-12-02T08:58:28.176Z,3417
2018-12-02T08:58:58.173Z,3473
2018-12-02T08:59:28.195Z,3550
2018-12-02T08:59:58.255Z,3667
2018-12-02T09:00:28.275Z,3813
2018-12-02T09:00:58.308Z,3953
2018-12-02T09:01:28.328Z,4080
2018-12-02T09:01:58.370Z,4210
2018-12-02T09:02:28.441Z,4280
2018-12-02T09:02:58.394Z,4197
2018-12-02T09:03:28.482Z,4210
2018-12-02T09:03:58.485Z,4290
2018-12-02T09:04:28.513Z,4430
2018-12-02T09:04:58.551Z,4593
2018-12-02T09:05:28.583Z,4767
2018-12-02T09:05:58.627Z,4897
2018-12-02T09:06:28.638Z,5070
2018-12-02T09:06:58.644Z,5243
2018-12-02T09:07:28.705Z,5307
2018-12-02T09:07:58.728Z,5357
2018-12-02T09:08:28.777Z,5480
2018-12-02T09:08:58.771Z,5433
2018-12-02T09:09:28.822Z,5147
2018-12-02T09:09:59.571Z,5160
2018-12-02T09:10:28.905Z,5233
2018-12-02T09:10:58.907Z,5390
2018-12-02T09:11:28.997Z,5600
2018-12-02T09:11:58.980Z,5787
2018-12-02T09:12:29.655Z,5920
2018-12-02T09:12:59.011Z,5923
2018-12-02T09:13:29.161Z,5967
2018-12-02T09:13:59.111Z,6113
2018-12-02T09:14:29.114Z,6277
2018-12-02T09:14:59.189Z,6217
2018-12-02T09:15:29.223Z,6063
2018-12-02T09:15:59.207Z,5973
2018-12-02T09:16:29.280Z,6057
2018-12-02T09:16:59.325Z,6227
2018-12-02T09:17:29.420Z,6503
2018-12-02T09:17:59.386Z,6710
2018-12-02T09:18:29.486Z,6843
2018-12-02T09:18:59.432Z,6960
2018-12-02T09:19:29.464Z,7057
2018-12-02T09:19:59.500Z,7037
2018-12-02T09:20:29.567Z,7033
2018-12-02T09:20:59.578Z,7123
2018-12-02T09:21:29.596Z,7363
2018-12-02T09:21:59.588Z,7650
2018-12-02T09:22:29.659Z,7880
2018-12-02T09:22:59.695Z,8037
2018-12-02T09:23:29.714Z,8133
2018-12-02T09:23:59.771Z,8113
2018-12-02T09:24:29.784Z,8027
2018-12-02T09:24:59.833Z,7863
2018-12-02T09:25:29.846Z,7697
2018-12-02T09:25:59.905Z,7593
2018-12-02T09:26:29.924Z,7557
2018-12-02T09:26:59.938Z,7707
2018-12-02T09:27:29.972Z,7937
2018-12-02T09:27:59.986Z,8400
2018-12-02T09:28:30.027Z,8627
2018-12-02T09:29:00.056Z,8847
2018-12-02T09:29:30.071Z,9093
2018-12-02T09:30:00.111Z,9300
2018-12-02T09:30:30.276Z,9407
2018-12-02T09:31:00.187Z,9520
2018-12-02T09:31:30.215Z,9643
2018-12-02T09:32:00.246Z,9760
2018-12-02T09:32:30.272Z,9917
2018-12-02T09:33:00.938Z,9910
2018-12-02T09:33:30.352Z,9830
2018-12-02T09:34:00.884Z,9733
2018-12-02T09:34:30.404Z,9670
2018-12-02T09:35:00.957Z,9593
2018-12-02T09:35:30.466Z,9503
2018-12-02T09:36:00.668Z,9433
2018-12-02T09:36:30.526Z,9270
2018-12-02T09:37:02.261Z,9083
2018-12-02T09:37:30.600Z,8920
2018-12-02T09:38:01.077Z,8763
2018-12-02T09:38:30.643Z,8653
2018-12-02T09:39:01.768Z,8563
2018-12-02T09:39:30.704Z,8540
2018-12-02T09:40:00.990Z,8717
2018-12-02T09:40:30.812Z,8797
2018-12-02T09:41:00.880Z,8913
2018-12-02T09:41:30.829Z,9427
2018-12-02T09:42:00.795Z,9610
2018-12-02T09:42:30.865Z,9737
2018-12-02T09:43:00.957Z,9873
2018-12-02T09:43:30.945Z,9697
2018-12-02T09:44:00.919Z,9770
2018-12-02T09:44:31.011Z,9867
2018-12-02T09:45:00.976Z,9977
2018-12-02T09:45:31.080Z,10080
2018-12-02T09:46:01.085Z,10160
2018-12-02T09:46:31.093Z,10260
2018-12-02T09:47:01.605Z,10417
2018-12-02T09:47:31.209Z,10607
2018-12-02T09:48:01.224Z,10790
2018-12-02T09:48:31.285Z,10953
2018-12-02T09:49:01.230Z,11060
2018-12-02T09:49:31.329Z,11150
2018-12-02T09:50:01.295Z,11257
2018-12-02T09:50:31.353Z,11390
2018-12-02T09:51:01.388Z,11517
2018-12-02T09:51:31.456Z,11417
2018-12-02T09:52:01.416Z,11517
2018-12-02T09:52:31.510Z,11697
2018-12-02T09:53:01.473Z,12010
2018-12-02T09:53:31.586Z,12357
2018-12-02T09:54:01.537Z,12573
2018-12-02T09:54:31.606Z,13053
2018-12-02T09:55:01.652Z,13397
2018-12-02T09:55:31.662Z,13760
2018-12-02T09:56:01.726Z,14153
2018-12-02T09:56:31.752Z,14553
2018-12-02T09:57:01.805Z,14940
2018-12-02T09:57:31.787Z,15397
2018-12-02T09:58:01.834Z,15750
2018-12-02T09:58:31.827Z,16127
2018-12-02T09:59:01.844Z,16443
2018-12-02T09:59:31.914Z,16773
2018-12-02T10:00:01.938Z,16980
2018-12-02T10:00:34.235Z,17197
2018-12-02T10:01:02.006Z,17310
2018-12-02T10:01:32.034Z,17387
2018-12-02T10:02:02.031Z,17697
2018-12-02T10:02:32.201Z,17717
2018-12-02T10:03:02.096Z,17630
2018-12-02T10:03:32.194Z,17437
2018-12-02T10:04:02.208Z,17300
2018-12-02T10:04:32.224Z,17330
2018-12-02T10:05:02.248Z,17317
2018-12-02T10:05:32.304Z,17230
2018-12-02T10:06:02.273Z,17110
2018-12-02T10:06:32.354Z,17027
2018-12-02T10:07:02.394Z,16883
2018-12-02T10:07:32.502Z,16817
2018-12-02T10:08:02.430Z,16810
2018-12-02T10:08:32.484Z,16823
2018-12-02T10:09:02.489Z,16800
2018-12-02T10:09:32.553Z,16817
2018-12-02T10:10:02.531Z,16847
2018-12-02T10:10:32.618Z,16960
2018-12-02T10:11:02.662Z,17003
2018-12-02T10:11:32.845Z,17127
2018-12-02T10:12:02.662Z,17230
2018-12-02T10:12:32.775Z,17253
2018-12-02T10:13:03.313Z,17143
2018-12-02T10:13:32.795Z,16890
2018-12-02T10:14:02.789Z,16637
2018-12-02T10:14:32.863Z,16447
2018-12-02T10:15:02.854Z,16217
2018-12-02T10:15:32.924Z,16000
2018-12-02T10:16:02.910Z,15827
2018-12-02T10:16:32.981Z,15683
2018-12-02T10:17:02.948Z,15610
2018-12-02T10:17:33.049Z,15583
2018-12-02T10:18:03.021Z,15577
2018-12-02T10:18:33.136Z,15543
2018-12-02T10:19:33.168Z,15590
2018-12-02T10:20:03.151Z,15600
2018-12-02T10:20:33.228Z,15550
2018-12-02T10:21:03.224Z,15460
2018-12-02T10:21:33.289Z,15343
2018-12-02T10:22:03.286Z,15260
2018-12-02T10:22:33.349Z,15213
2018-12-02T10:23:03.384Z,15163
2018-12-02T10:23:33.408Z,15157
2018-12-02T10:24:03.478Z,15183
2018-12-02T10:24:33.422Z,15150
2018-12-02T10:25:03.466Z,15190
2018-12-02T10:25:33.541Z,15090
2018-12-02T10:26:03.567Z,14920
2018-12-02T10:26:33.636Z,14770
2018-12-02T10:27:03.668Z,14650
2018-12-02T10:27:33.665Z,14520
2018-12-02T10:28:03.703Z,14580
2018-12-02T10:28:33.741Z,14487
2018-12-02T10:29:03.755Z,14460
2018-12-02T10:29:33.794Z,14413
2018-12-02T10:30:03.839Z,14327
2018-12-02T10:30:33.866Z,14287
2018-12-02T10:31:03.883Z,14230
2018-12-02T10:31:33.905Z,14150
2018-12-02T10:32:03.931Z,14060
2018-12-02T10:32:33.962Z,13943
2018-12-02T10:33:04.006Z,13917
2018-12-02T10:33:34.086Z,13937
2018-12-02T10:34:04.001Z,13987
2018-12-02T10:34:34.089Z,14053
2018-12-02T10:35:04.147Z,14077
2018-12-02T10:35:34.151Z,14013
2018-12-02T10:36:04.186Z,13867
2018-12-02T10:36:34.226Z,13733
2018-12-02T10:37:04.264Z,13553
2018-12-02T10:37:34.269Z,13377
2018-12-02T10:38:04.387Z,13250
2018-12-02T10:38:34.546Z,13110
2018-12-02T10:39:04.493Z,13007
2018-12-02T10:39:34.390Z,12917
2018-12-02T10:40:04.382Z,12620
2018-12-02T10:40:34.461Z,12353
2018-12-02T10:41:04.495Z,11990
2018-12-02T10:41:34.546Z,11600
2018-12-02T10:42:04.499Z,11337
2018-12-02T10:42:34.582Z,11020
2018-12-02T10:43:04.671Z,10547
2018-12-02T10:43:34.651Z,10267
2018-12-02T10:44:04.626Z,10110
2018-12-02T10:44:34.675Z,10000
2018-12-02T10:45:04.691Z,9937
2018-12-02T10:45:35.456Z,10040
2018-12-02T10:46:04.746Z,10157
2018-12-02T10:46:34.810Z,10260
2018-12-02T10:47:04.794Z,10430
2018-12-02T10:47:34.868Z,10600
2018-12-02T10:48:04.912Z,10823
2018-12-02T10:49:04.917Z,10883
2018-12-02T10:49:34.968Z,10573
2018-12-02T10:50:04.977Z,10433
2018-12-02T10:50:35.043Z,10120
2018-12-02T10:51:05.043Z,9980
2018-12-02T10:51:35.089Z,9587
2018-12-02T10:52:05.109Z,9507
2018-12-02T10:52:35.198Z,9527
2018-12-02T10:53:05.271Z,9257
2018-12-02T10:53:35.233Z,9193
2018-12-02T10:54:05.247Z,9110
2018-12-02T10:54:35.323Z,8990
2018-12-02T10:55:05.364Z,8987
2018-12-02T10:55:35.379Z,9027
2018-12-02T10:56:05.374Z,8973
2018-12-02T10:56:35.445Z,8917
2018-12-02T10:57:05.452Z,8993
2018-12-02T10:57:35.489Z,8607
2018-12-02T10:58:05.535Z,8463
2018-12-02T10:58:35.565Z,7783
2018-12-02T10:59:05.579Z,7767
2018-12-02T10:59:35.628Z,7647
2018-12-02T11:00:05.638Z,7643
2018-12-02T11:00:35.712Z,7930
2018-12-02T11:01:05.709Z,8137
2018-12-02T11:01:36.190Z,8310
2018-12-02T11:02:05.764Z,8603
2018-12-02T11:02:35.805Z,8563
2018-12-02T11:03:05.841Z,8490
2018-12-02T11:03:35.890Z,8257
2018-12-02T11:04:05.879Z,7877
2018-12-02T11:04:35.893Z,7517
2018-12-02T11:05:05.953Z,7197
2018-12-02T11:05:35.995Z,6927
2018-12-02T11:06:06.008Z,6680
2018-12-02T11:06:36.374Z,6503
2018-12-02T11:07:06.085Z,6417
2018-12-02T11:07:36.118Z,6430
2018-12-02T11:08:06.172Z,6537
2018-12-02T11:08:36.198Z,6623
2018-12-02T11:09:06.179Z,6717
2018-12-02T11:09:36.240Z,6770
2018-12-02T11:10:06.246Z,6780
2018-12-02T11:10:36.299Z,6720
2018-12-02T11:11:06.309Z,6700
2018-12-02T11:11:36.369Z,6690
2018-12-02T11:12:06.367Z,6647
2018-12-02T11:12:36.437Z,6577
2018-12-02T11:13:06.434Z,6470
2018-12-02T11:13:36.486Z,6407
2018-12-02T11:14:06.462Z,6490
2018-12-02T11:14:36.546Z,6643
2018-12-02T11:15:06.546Z,6793
2018-12-02T11:15:36.607Z,6943
2018-12-02T11:16:06.613Z,7100
2018-12-02T11:16:36.678Z,7083
2018-12-02T11:17:06.643Z,7073
2018-12-02T11:17:36.743Z,7210
2018-12-02T11:18:07.900Z,7547
2018-12-02T11:18:36.822Z,7963
2018-12-02T11:19:06.887Z,8297
2018-12-02T11:19:36.878Z,8523
2018-12-02T11:20:06.855Z,8600
2018-12-02T11:20:36.917Z,8587
2018-12-02T11:21:06.918Z,8690
2018-12-02T11:21:36.981Z,8810
2018-12-02T11:22:06.987Z,8930
2018-12-02T11:22:37.045Z,8950
2018-12-02T11:23:07.040Z,8853
2018-12-02T11:23:37.101Z,8600
2018-12-02T11:24:07.191Z,8383
2018-12-02T11:24:37.166Z,8197
2018-12-02T11:25:07.161Z,8053
2018-12-02T11:25:37.180Z,7837
2018-12-02T11:26:07.221Z,7623
2018-12-02T11:26:37.284Z,7393
2018-12-02T11:27:07.293Z,7133
2018-12-02T11:27:37.364Z,6700
2018-12-02T11:28:07.345Z,6443
2018-12-02T11:28:37.414Z,6247
2018-12-02T11:29:07.428Z,6110
2018-12-02T11:29:37.446Z,5967
2018-12-02T11:30:07.495Z,5890
2018-12-02T11:30:37.520Z,5793
2018-12-02T11:31:07.543Z,5660
2018-12-02T11:31:37.576Z,5497
2018-12-02T11:32:07.564Z,5373
2018-12-02T11:32:37.667Z,5223
2018-12-02T11:33:07.636Z,5163
2018-12-02T11:33:37.731Z,5050
2018-12-02T11:34:07.772Z,5017
2018-12-02T11:34:37.750Z,5027
2018-12-02T11:35:07.811Z,5000
2018-12-02T11:35:37.835Z,4927
2018-12-02T11:36:07.807Z,4887
2018-12-02T11:36:37.858Z,4830
2018-12-02T11:37:07.871Z,4867
2018-12-02T11:37:37.924Z,4933
2018-12-02T11:38:07.930Z,4970
2018-12-02T11:38:37.976Z,4997
2018-12-02T11:39:08.050Z,5060
2018-12-02T11:39:38.044Z,5173
2018-12-02T11:40:08.136Z,5313
2018-12-02T11:40:38.147Z,5390
2018-12-02T11:41:08.136Z,5427
2018-12-02T11:41:38.218Z,5443
2018-12-02T11:42:08.210Z,5590
2018-12-02T11:42:38.312Z,5583
2018-12-02T11:43:08.334Z,5687
2018-12-02T11:43:38.334Z,5637
2018-12-02T11:44:08.346Z,5567
2018-12-02T11:44:38.372Z,5523
2018-12-02T11:45:08.428Z,5603
2018-12-02T11:45:38.479Z,5377
2018-12-02T11:46:08.465Z,5380
2018-12-02T11:46:38.518Z,5347
2018-12-02T11:47:08.546Z,5197
2018-12-02T11:47:38.579Z,5120
2018-12-02T11:48:08.589Z,4587
2018-12-02T11:49:08.691Z,4700
2018-12-02T11:49:38.705Z,4883
2018-12-02T11:50:08.791Z,5147
2018-12-02T11:50:38.767Z,5330
2018-12-02T11:51:08.791Z,5597
2018-12-02T11:51:38.852Z,6017
2018-12-02T11:52:08.887Z,6450
2018-12-02T11:52:38.897Z,6717
2018-12-02T11:53:08.923Z,6993
2018-12-02T11:53:38.956Z,7207
2018-12-02T11:54:09.005Z,7253
2018-12-02T11:54:39.049Z,7163
2018-12-02T11:55:09.137Z,7040
2018-12-02T11:55:39.086Z,6970
2018-12-02T11:56:09.093Z,6840
2018-12-02T11:56:39.134Z,6660
2018-12-02T11:57:09.165Z,6497
2018-12-02T11:57:39.204Z,6287
2018-12-02T11:58:09.230Z,6103
2018-12-02T11:58:39.251Z,6050
2018-12-02T11:59:09.313Z,5860
2018-12-02T11:59:39.324Z,5643
2018-12-02T12:00:09.428Z,5397
2018-12-02T12:00:39.376Z,4983
2018-12-02T12:01:09.402Z,4583
2018-12-02T12:01:39.397Z,4520
2018-12-02T12:02:09.464Z,4647
2018-12-02T12:02:39.484Z,4733
2018-12-02T12:03:09.533Z,4780
2018-12-02T12:03:39.521Z,4773
2018-12-02T12:04:09.607Z,4683
2018-12-02T12:04:39.583Z,4740
2018-12-02T12:05:09.698Z,4987
2018-12-02T12:05:39.718Z,5280
2018-12-02T12:06:09.664Z,5477
2018-12-02T12:06:39.757Z,5543
2018-12-02T12:07:09.777Z,5553
2018-12-02T12:07:39.818Z,5560
2018-12-02T12:08:09.830Z,5563
2018-12-02T12:08:39.902Z,5587
2018-12-02T12:09:09.904Z,5613
2018-12-02T12:09:39.937Z,5627
2018-12-02T12:10:10.023Z,5547
2018-12-02T12:10:40.014Z,5400
2018-12-02T12:11:10.021Z,5310
2018-12-02T12:11:40.076Z,5193
2018-12-02T12:12:10.047Z,4997
2018-12-02T12:12:40.135Z,4887
2018-12-02T12:13:10.129Z,4750
2018-12-02T12:13:40.196Z,4607
2018-12-02T12:14:10.204Z,4527
2018-12-02T12:14:40.284Z,4490
2018-12-02T12:15:10.355Z,4433
2018-12-02T12:15:40.309Z,4410
2018-12-02T12:16:10.334Z,4387
2018-12-02T12:16:40.325Z,4350
2018-12-02T12:17:10.341Z,4293
2018-12-02T12:17:40.485Z,4223
2018-12-02T12:18:10.416Z,4163
2018-12-02T12:18:40.446Z,4123
2018-12-02T12:19:10.522Z,4033
2018-12-02T12:19:40.590Z,3937
2018-12-02T12:20:10.635Z,3840
2018-12-02T12:20:40.605Z,3777
2018-12-02T12:21:10.598Z,3707
2018-12-02T12:21:40.652Z,3650
2018-12-02T12:22:10.644Z,3610
2018-12-02T12:22:40.690Z,3570
2018-12-02T12:23:10.709Z,3533
2018-12-02T12:23:40.747Z,3573
2018-12-02T12:24:10.771Z,3563
2018-12-02T12:24:40.851Z,3590
2018-12-02T12:25:10.913Z,3353
2018-12-02T12:25:40.894Z,3387
2018-12-02T12:26:10.902Z,3460
2018-12-02T12:26:40.968Z,3527
2018-12-02T12:27:10.947Z,3593
2018-12-02T12:27:41.002Z,3657
2018-12-02T12:28:11.008Z,3717
2018-12-02T12:28:41.097Z,3713
2018-12-02T12:29:11.110Z,3650
2018-12-02T12:29:41.176Z,3493
2018-12-02T12:30:11.229Z,3353
2018-12-02T12:30:41.227Z,3257
2018-12-02T12:31:11.232Z,3183
2018-12-02T12:31:41.294Z,3113
2018-12-02T12:32:11.308Z,3193
2018-12-02T12:32:41.355Z,3207
2018-12-02T12:33:11.351Z,3243
2018-12-02T12:33:41.420Z,3300
2018-12-02T12:34:11.436Z,3310
2018-12-02T12:34:41.503Z,3300
2018-12-02T12:35:13.037Z,3223
2018-12-02T12:35:41.538Z,3150
2018-12-02T12:36:11.516Z,3133
2018-12-02T12:36:41.616Z,3130
2018-12-02T12:37:11.590Z,3167
2018-12-02T12:37:41.651Z,3217
2018-12-02T12:38:11.666Z,3167
2018-12-02T12:38:41.718Z,3113
2018-12-02T12:39:11.728Z,3097
2018-12-02T12:39:41.780Z,3120
2018-12-02T12:40:11.781Z,3137
2018-12-02T12:40:41.850Z,3117
2018-12-02T12:41:11.855Z,3203
2018-12-02T12:41:41.880Z,3077
2018-12-02T12:42:11.895Z,3063
2018-12-02T12:42:41.945Z,2990
2018-12-02T12:43:11.957Z,2947
2018-12-02T12:43:42.033Z,2930
2018-12-02T12:44:12.019Z,2970
2018-12-02T12:44:42.087Z,3073
2018-12-02T12:45:12.079Z,3277
2018-12-02T12:45:42.167Z,3507
2018-12-02T12:46:12.129Z,3377
2018-12-02T12:46:42.215Z,3393
2018-12-02T12:47:12.201Z,3413
2018-12-02T12:47:42.282Z,3397
2018-12-02T12:48:12.267Z,3313
2018-12-02T12:48:42.338Z,3277
2018-12-02T12:49:12.336Z,3293
2018-12-02T12:49:42.402Z,3323
2018-12-02T12:50:12.385Z,3340
2018-12-02T12:50:42.426Z,3317
2018-12-02T12:51:12.528Z,3353
2018-12-02T12:51:43.023Z,3420
2018-12-02T12:52:12.517Z,3520
2018-12-02T12:52:42.623Z,3613
2018-12-02T12:53:12.640Z,3650
2018-12-02T12:53:42.642Z,3637
2018-12-02T12:54:12.715Z,3600
2018-12-02T12:54:42.708Z,3530
2018-12-02T12:55:12.742Z,3413
2018-12-02T12:55:42.815Z,3283
2018-12-02T12:56:12.834Z,3147
2018-12-02T12:56:42.856Z,3010
2018-12-02T12:57:12.902Z,2883
2018-12-02T12:57:42.894Z,2750
2018-12-02T12:58:12.938Z,2620
2018-12-02T12:58:42.945Z,2500
2018-12-02T12:59:12.981Z,2390
2018-12-02T12:59:43.017Z,2307
2018-12-02T13:00:13.074Z,2247
2018-12-02T13:00:43.041Z,2213
2018-12-02T13:01:13.134Z,2220
2018-12-02T13:01:43.138Z,2257
2018-12-02T13:02:13.154Z,2290
2018-12-02T13:02:43.222Z,2343
2018-12-02T13:03:13.224Z,2367
2018-12-02T13:03:43.299Z,2373
2018-12-02T13:04:13.288Z,2387
2018-12-02T13:04:43.335Z,2197
2018-12-02T13:05:13.371Z,2157
2018-12-02T13:05:43.398Z,2097
2018-12-02T13:06:13.411Z,2030
2018-12-02T13:06:43.404Z,1960
2018-12-02T13:07:13.409Z,1943
2018-12-02T13:07:43.491Z,1867
2018-12-02T13:08:13.496Z,1800
2018-12-02T13:08:43.582Z,1730
2018-12-02T13:09:13.568Z,1680
2018-12-02T13:09:43.594Z,1617
2018-12-02T13:10:13.616Z,1567
2018-12-02T13:10:43.663Z,1573
2018-12-02T13:11:13.689Z,1650
2018-12-02T13:11:43.721Z,1757
2018-12-02T13:12:13.731Z,1840
2018-12-02T13:12:43.767Z,1767
2018-12-02T13:13:13.787Z,1827
2018-12-02T13:13:43.836Z,1943
2018-12-02T13:14:13.845Z,2000
2018-12-02T13:14:43.883Z,1800
2018-12-02T13:15:13.900Z,1737
2018-12-02T13:15:43.948Z,1660
2018-12-02T13:16:13.963Z,1613
2018-12-02T13:16:44.017Z,1500
2018-12-02T13:17:14.050Z,1407
2018-12-02T13:17:44.072Z,1333
2018-12-02T13:18:14.130Z,1313
2018-12-02T13:18:44.149Z,1343
2018-12-02T13:19:14.169Z,1397
2018-12-02T13:19:44.202Z,1390
2018-12-02T13:20:14.271Z,1470
2018-12-02T13:20:44.282Z,1527
2018-12-02T13:21:14.353Z,1507
2018-12-02T13:21:44.343Z,1567
2018-12-02T13:22:14.393Z,1613
2018-12-02T13:22:44.420Z,1653
2018-12-02T13:23:14.437Z,1677
2018-12-02T13:23:44.492Z,1683
2018-12-02T13:24:14.483Z,1680
2018-12-02T13:24:44.555Z,1647
2018-12-02T13:25:14.558Z,1633
2018-12-02T13:25:44.603Z,1667
2018-12-02T13:26:14.628Z,1713
2018-12-02T13:26:44.672Z,1733
2018-12-02T13:27:14.681Z,1780
2018-12-02T13:27:44.732Z,1853
2018-12-02T13:28:14.739Z,1867
2018-12-02T13:28:44.749Z,1860
2018-12-02T13:29:14.809Z,1843
2018-12-02T13:29:44.860Z,1873
2018-12-02T13:30:14.866Z,1917
2018-12-02T13:30:44.922Z,1920
2018-12-02T13:31:14.883Z,1890
2018-12-02T13:31:44.980Z,1867
2018-12-02T13:32:14.992Z,1843
2018-12-02T13:32:45.042Z,1760
2018-12-02T13:33:15.045Z,1710
2018-12-02T13:33:45.105Z,1663
2018-12-02T13:34:15.109Z,1690
2018-12-02T13:34:45.219Z,1743
2018-12-02T13:35:15.178Z,1813
2018-12-02T13:35:45.252Z,1767
2018-12-02T13:36:15.231Z,1830
2018-12-02T13:36:45.322Z,1863
2018-12-02T13:37:15.304Z,1830
2018-12-02T13:37:45.350Z,1770
2018-12-02T13:38:15.358Z,1780
2018-12-02T13:38:45.414Z,1877
2018-12-02T13:39:15.408Z,2057
2018-12-02T13:39:45.416Z,2377
2018-12-02T13:40:15.473Z,2683
2018-12-02T13:40:45.605Z,2960
2018-12-02T13:41:15.543Z,3193
2018-12-02T13:41:45.617Z,3250